sensor_id;sensor_type;location;lat;lon;timestamp;pressure;altitude;pressure_sealevel;temperature;humidity
71149;BME280;59072;42.144;25.200;2023-04-07T00:01:31;99892.72;;;6.58;48.02
71149;BME280;59072;42.144;25.200;2023-04-07T00:03:56;99893.28;;;6.53;47.55
71149;BME280;59072;42.144;25.200;2023-04-07T00:06:22;99893.47;;;6.52;47.52
71149;BME280;59072;42.144;25.200;2023-04-07T00:08:47;99899.97;;;6.42;47.46
71149;BME280;59072;42.144;25.200;2023-04-07T00:11:13;99904.44;;;6.42;47.07
71149;BME280;59072;42.144;25.200;2023-04-07T00:13:38;99909.06;;;6.33;48.21
71149;BME280;59072;42.144;25.200;2023-04-07T00:16:03;99900.19;;;6.48;48.15
71149;BME280;59072;42.144;25.200;2023-04-07T00:18:29;99901.66;;;6.57;47.63
71149;BME280;59072;42.144;25.200;2023-04-07T00:20:54;99886.53;;;6.44;47.23
71149;BME280;59072;42.144;25.200;2023-04-07T00:23:20;99905.91;;;6.51;47.70
71149;BME280;59072;42.144;25.200;2023-04-07T00:25:47;99892.22;;;6.48;46.98
71149;BME280;59072;42.144;25.200;2023-04-07T00:28:12;99901.22;;;6.53;46.80
71149;BME280;59072;42.144;25.200;2023-04-07T00:30:37;99902.13;;;6.67;46.90
71149;BME280;59072;42.144;25.200;2023-04-07T00:33:03;99895.78;;;6.61;47.00
71149;BME280;59072;42.144;25.200;2023-04-07T00:35:28;99900.94;;;6.76;47.29
71149;BME280;59072;42.144;25.200;2023-04-07T00:37:54;99897.25;;;6.71;46.67
71149;BME280;59072;42.144;25.200;2023-04-07T00:40:19;99905.00;;;6.72;47.54
71149;BME280;59072;42.144;25.200;2023-04-07T00:42:45;99909.28;;;6.73;47.38
71149;BME280;59072;42.144;25.200;2023-04-07T00:45:10;99902.53;;;6.71;47.36
71149;BME280;59072;42.144;25.200;2023-04-07T00:47:37;99906.59;;;6.60;47.57
71149;BME280;59072;42.144;25.200;2023-04-07T00:50:03;99906.00;;;6.71;47.24
71149;BME280;59072;42.144;25.200;2023-04-07T00:52:30;99904.59;;;6.75;48.36
71149;BME280;59072;42.144;25.200;2023-04-07T00:54:56;99913.97;;;6.71;47.26
71149;BME280;59072;42.144;25.200;2023-04-07T00:57:22;99907.41;;;6.67;47.61
71149;BME280;59072;42.144;25.200;2023-04-07T00:59:49;99890.69;;;6.60;47.43
71149;BME280;59072;42.144;25.200;2023-04-07T01:02:17;99904.59;;;6.69;47.96
71149;BME280;59072;42.144;25.200;2023-04-07T01:07:43;99880.09;;;6.60;48.23
71149;BME280;59072;42.144;25.200;2023-04-07T01:10:20;99900.09;;;6.69;47.43
71149;BME280;59072;42.144;25.200;2023-04-07T01:13:02;99903.31;;;6.58;47.14
71149;BME280;59072;42.144;25.200;2023-04-07T01:15:33;99889.41;;;6.56;47.85
71149;BME280;59072;42.144;25.200;2023-04-07T01:18:20;99903.16;;;6.66;47.26
71149;BME280;59072;42.144;25.200;2023-04-07T01:20:49;99889.91;;;6.66;47.60
71149;BME280;59072;42.144;25.200;2023-04-07T01:26:19;99887.41;;;6.58;47.37
71149;BME280;59072;42.144;25.200;2023-04-07T01:29:06;99888.03;;;6.60;46.73
71149;BME280;59072;42.144;25.200;2023-04-07T01:31:38;99880.00;;;6.40;47.79
71149;BME280;59072;42.144;25.200;2023-04-07T01:34:04;99900.00;;;6.56;48.08
71149;BME280;59072;42.144;25.200;2023-04-07T01:36:32;99885.38;;;6.60;47.42
71149;BME280;59072;42.144;25.200;2023-04-07T01:38:58;99882.63;;;6.40;46.75
71149;BME280;59072;42.144;25.200;2023-04-07T01:41:25;99898.00;;;6.58;46.03
71149;BME280;59072;42.144;25.200;2023-04-07T01:43:52;99895.09;;;6.46;46.29
71149;BME280;59072;42.144;25.200;2023-04-07T01:46:18;99901.03;;;6.55;46.02
71149;BME280;59072;42.144;25.200;2023-04-07T01:48:44;99897.34;;;6.49;46.72
71149;BME280;59072;42.144;25.200;2023-04-07T01:51:11;99903.84;;;6.47;46.52
71149;BME280;59072;42.144;25.200;2023-04-07T01:53:41;99904.84;;;6.46;47.09
71149;BME280;59072;42.144;25.200;2023-04-07T01:56:07;99905.88;;;6.44;46.55
71149;BME280;59072;42.144;25.200;2023-04-07T01:58:33;99904.84;;;6.46;46.56
71149;BME280;59072;42.144;25.200;2023-04-07T02:00:58;99911.09;;;6.31;46.48
71149;BME280;59072;42.144;25.200;2023-04-07T02:06:27;99875.06;;;6.37;46.36
71149;BME280;59072;42.144;25.200;2023-04-07T02:08:59;99903.81;;;6.40;46.45
71149;BME280;59072;42.144;25.200;2023-04-07T02:11:26;99903.22;;;6.44;46.63
71149;BME280;59072;42.144;25.200;2023-04-07T02:13:54;99904.19;;;6.37;46.96
71149;BME280;59072;42.144;25.200;2023-04-07T02:16:21;99908.91;;;6.41;47.14
71149;BME280;59072;42.144;25.200;2023-04-07T02:18:47;99894.19;;;6.32;46.21
71149;BME280;59072;42.144;25.200;2023-04-07T02:21:14;99894.88;;;6.48;46.79
71149;BME280;59072;42.144;25.200;2023-04-07T02:23:40;99901.81;;;6.49;47.45
71149;BME280;59072;42.144;25.200;2023-04-07T02:26:06;99907.44;;;6.32;47.19
71149;BME280;59072;42.144;25.200;2023-04-07T02:28:31;99904.16;;;6.30;47.47
71149;BME280;59072;42.144;25.200;2023-04-07T02:30:56;99904.44;;;6.42;47.82
71149;BME280;59072;42.144;25.200;2023-04-07T02:33:22;99911.09;;;6.31;47.74
71149;BME280;59072;42.144;25.200;2023-04-07T02:35:47;99904.78;;;6.32;47.60
71149;BME280;59072;42.144;25.200;2023-04-07T02:38:13;99907.25;;;6.34;48.07
71149;BME280;59072;42.144;25.200;2023-04-07T02:40:38;99902.94;;;6.26;47.14
71149;BME280;59072;42.144;25.200;2023-04-07T02:43:04;99907.44;;;6.32;48.17
71149;BME280;59072;42.144;25.200;2023-04-07T02:45:30;99887.19;;;6.18;47.38
71149;BME280;59072;42.144;25.200;2023-04-07T02:47:55;99909.66;;;6.29;48.50
71149;BME280;59072;42.144;25.200;2023-04-07T02:50:21;99911.16;;;6.38;47.62
71149;BME280;59072;42.144;25.200;2023-04-07T02:52:46;99913.66;;;6.18;48.59
71149;BME280;59072;42.144;25.200;2023-04-07T02:55:11;99914.91;;;6.22;48.88
71149;BME280;59072;42.144;25.200;2023-04-07T02:57:37;99914.91;;;6.22;47.97
71149;BME280;59072;42.144;25.200;2023-04-07T03:00:03;99911.69;;;5.98;48.41
71149;BME280;59072;42.144;25.200;2023-04-07T03:02:28;99905.78;;;5.96;48.23
71149;BME280;59072;42.144;25.200;2023-04-07T03:04:54;99913.72;;;5.96;48.48
71149;BME280;59072;42.144;25.200;2023-04-07T03:07:19;99904.06;;;5.89;48.69
71149;BME280;59072;42.144;25.200;2023-04-07T03:09:45;99906.94;;;5.94;48.47
71149;BME280;59072;42.144;25.200;2023-04-07T03:12:10;99908.22;;;5.98;49.09
71149;BME280;59072;42.144;25.200;2023-04-07T03:14:36;99904.97;;;5.96;49.50
71149;BME280;59072;42.144;25.200;2023-04-07T03:17:02;99915.06;;;5.92;49.33
71149;BME280;59072;42.144;25.200;2023-04-07T03:19:27;99911.38;;;5.87;49.18
71149;BME280;59072;42.144;25.200;2023-04-07T03:21:53;99899.16;;;5.86;49.52
71149;BME280;59072;42.144;25.200;2023-04-07T03:24:18;99909.69;;;5.79;50.08
71149;BME280;59072;42.144;25.200;2023-04-07T03:26:44;99908.19;;;5.70;49.40
71149;BME280;59072;42.144;25.200;2023-04-07T03:29:09;99914.41;;;5.83;49.41
71149;BME280;59072;42.144;25.200;2023-04-07T03:31:35;99909.75;;;5.86;48.64
71149;BME280;59072;42.144;25.200;2023-04-07T03:34:02;99919.75;;;5.90;49.58
71149;BME280;59072;42.144;25.200;2023-04-07T03:36:28;99910.47;;;5.73;48.96
71149;BME280;59072;42.144;25.200;2023-04-07T03:38:53;99904.28;;;5.66;49.58
71149;BME280;59072;42.144;25.200;2023-04-07T03:41:19;99927.63;;;5.83;49.53
71149;BME280;59072;42.144;25.200;2023-04-07T03:43:45;99928.03;;;5.80;48.81
71149;BME280;59072;42.144;25.200;2023-04-07T03:46:11;99932.13;;;5.83;48.58
71149;BME280;59072;42.144;25.200;2023-04-07T03:48:36;99933.38;;;5.66;49.86
71149;BME280;59072;42.144;25.200;2023-04-07T03:51:01;99940.56;;;5.72;49.16
71149;BME280;59072;42.144;25.200;2023-04-07T03:53:27;99943.34;;;5.85;49.08
71149;BME280;59072;42.144;25.200;2023-04-07T03:55:52;99938.03;;;5.85;48.56
71149;BME280;59072;42.144;25.200;2023-04-07T03:58:18;99939.03;;;5.84;49.05
71149;BME280;59072;42.144;25.200;2023-04-07T04:00:43;99956.63;;;5.92;48.05
71149;BME280;59072;42.144;25.200;2023-04-07T04:03:09;99954.16;;;5.90;48.24
71149;BME280;59072;42.144;25.200;2023-04-07T04:05:35;99962.72;;;5.92;47.92
71149;BME280;59072;42.144;25.200;2023-04-07T04:08:00;99966.34;;;5.84;49.27
71149;BME280;59072;42.144;25.200;2023-04-07T04:10:25;99963.28;;;5.88;48.98
71149;BME280;59072;42.144;25.200;2023-04-07T04:12:51;99965.03;;;5.95;49.19
71149;BME280;59072;42.144;25.200;2023-04-07T04:15:16;99952.84;;;5.79;49.55
71149;BME280;59072;42.144;25.200;2023-04-07T04:17:42;99960.06;;;5.92;48.65
71149;BME280;59072;42.144;25.200;2023-04-07T04:20:08;99968.47;;;5.96;49.43
71149;BME280;59072;42.144;25.200;2023-04-07T04:22:34;99959.72;;;5.95;49.78
71149;BME280;59072;42.144;25.200;2023-04-07T04:24:59;99967.13;;;6.07;49.35
71149;BME280;59072;42.144;25.200;2023-04-07T04:27:26;99967.72;;;6.02;48.91
71149;BME280;59072;42.144;25.200;2023-04-07T04:29:51;99969.47;;;6.16;49.23
71149;BME280;59072;42.144;25.200;2023-04-07T04:32:18;99976.91;;;6.06;51.25
71149;BME280;59072;42.144;25.200;2023-04-07T04:34:43;99974.09;;;6.08;53.64
71149;BME280;59072;42.144;25.200;2023-04-07T04:37:09;99985.00;;;5.98;55.01
71149;BME280;59072;42.144;25.200;2023-04-07T04:39:34;99975.16;;;6.13;55.95
71149;BME280;59072;42.144;25.200;2023-04-07T04:42:00;99983.28;;;6.12;53.56
71149;BME280;59072;42.144;25.200;2023-04-07T04:44:26;99977.19;;;6.11;53.69
71149;BME280;59072;42.144;25.200;2023-04-07T04:46:51;99968.53;;;5.81;52.61
71149;BME280;59072;42.144;25.200;2023-04-07T04:49:17;99987.75;;;5.90;53.22
71149;BME280;59072;42.144;25.200;2023-04-07T04:51:44;99984.00;;;5.99;51.90
71149;BME280;59072;42.144;25.200;2023-04-07T04:54:09;99992.84;;;5.91;52.11
71149;BME280;59072;42.144;25.200;2023-04-07T04:56:35;99993.75;;;5.98;51.55
71149;BME280;59072;42.144;25.200;2023-04-07T04:59:02;99995.50;;;6.13;50.76
71149;BME280;59072;42.144;25.200;2023-04-07T05:01:27;99999.97;;;6.12;50.32
71149;BME280;59072;42.144;25.200;2023-04-07T05:03:52;99996.38;;;6.20;51.18
71149;BME280;59072;42.144;25.200;2023-04-07T05:06:18;99994.84;;;6.32;51.04
71149;BME280;59072;42.144;25.200;2023-04-07T05:08:43;99993.97;;;6.25;51.34
71149;BME280;59072;42.144;25.200;2023-04-07T05:11:10;100007.50;;;6.37;50.51
71149;BME280;59072;42.144;25.200;2023-04-07T05:13:35;100009.00;;;6.18;50.63
71149;BME280;59072;42.144;25.200;2023-04-07T05:16:01;99993.88;;;6.12;51.32
71149;BME280;59072;42.144;25.200;2023-04-07T05:18:26;100009.56;;;6.13;51.21
71149;BME280;59072;42.144;25.200;2023-04-07T05:20:52;100013.53;;;6.24;51.54
71149;BME280;59072;42.144;25.200;2023-04-07T05:23:17;100019.53;;;6.39;51.09
71149;BME280;59072;42.144;25.200;2023-04-07T05:25:43;100015.13;;;6.47;51.44
71149;BME280;59072;42.144;25.200;2023-04-07T05:28:08;100020.16;;;6.41;51.45
71149;BME280;59072;42.144;25.200;2023-04-07T05:30:33;100020.63;;;6.52;51.79
71149;BME280;59072;42.144;25.200;2023-04-07T05:32:59;100023.44;;;6.43;51.09
71149;BME280;59072;42.144;25.200;2023-04-07T05:35:24;100024.13;;;6.24;52.85
71149;BME280;59072;42.144;25.200;2023-04-07T05:37:50;100006.25;;;6.33;52.77
71149;BME280;59072;42.144;25.200;2023-04-07T05:40:15;100022.72;;;6.56;52.89
71149;BME280;59072;42.144;25.200;2023-04-07T05:42:41;100020.28;;;6.55;50.74
71149;BME280;59072;42.144;25.200;2023-04-07T05:45:08;100032.28;;;6.86;51.17
71149;BME280;59072;42.144;25.200;2023-04-07T05:47:33;100029.41;;;6.80;51.55
71149;BME280;59072;42.144;25.200;2023-04-07T05:49:59;100035.56;;;6.88;50.42
71149;BME280;59072;42.144;25.200;2023-04-07T05:52:25;100027.25;;;6.97;50.45
71149;BME280;59072;42.144;25.200;2023-04-07T05:54:50;100020.91;;;6.92;49.42
71149;BME280;59072;42.144;25.200;2023-04-07T05:57:15;100035.31;;;7.17;49.35
71149;BME280;59072;42.144;25.200;2023-04-07T05:59:41;100035.06;;;7.12;50.00
71149;BME280;59072;42.144;25.200;2023-04-07T06:02:06;100033.69;;;7.23;49.49
71149;BME280;59072;42.144;25.200;2023-04-07T06:04:32;100030.13;;;7.44;50.21
71149;BME280;59072;42.144;25.200;2023-04-07T06:07:00;100036.69;;;7.61;51.13
71149;BME280;59072;42.144;25.200;2023-04-07T06:09:25;100037.91;;;7.59;49.43
71149;BME280;59072;42.144;25.200;2023-04-07T06:11:51;100033.88;;;7.83;48.13
71149;BME280;59072;42.144;25.200;2023-04-07T06:14:16;100042.41;;;7.72;48.03
71149;BME280;59072;42.144;25.200;2023-04-07T06:16:42;100026.50;;;7.72;47.70
71149;BME280;59072;42.144;25.200;2023-04-07T06:19:07;100043.22;;;7.65;48.19
71149;BME280;59072;42.144;25.200;2023-04-07T06:21:33;100042.41;;;7.58;47.01
71149;BME280;59072;42.144;25.200;2023-04-07T06:23:59;100047.13;;;7.76;47.34
71149;BME280;59072;42.144;25.200;2023-04-07T06:26:25;100049.41;;;7.79;46.13
71149;BME280;59072;42.144;25.200;2023-04-07T06:28:51;100046.56;;;7.88;48.08
71149;BME280;59072;42.144;25.200;2023-04-07T06:31:16;100049.25;;;8.08;47.11
71149;BME280;59072;42.144;25.200;2023-04-07T06:33:43;100049.06;;;8.36;46.44
71149;BME280;59072;42.144;25.200;2023-04-07T06:36:08;100055.16;;;8.23;45.39
71149;BME280;59072;42.144;25.200;2023-04-07T06:38:34;100063.78;;;8.32;46.86
71149;BME280;59072;42.144;25.200;2023-04-07T06:41:00;100064.63;;;8.52;46.14
71149;BME280;59072;42.144;25.200;2023-04-07T06:43:25;100057.25;;;8.48;45.69
71149;BME280;59072;42.144;25.200;2023-04-07T06:45:51;100053.16;;;8.45;44.75
71149;BME280;59072;42.144;25.200;2023-04-07T06:48:16;100049.47;;;8.53;45.36
71149;BME280;59072;42.144;25.200;2023-04-07T06:50:45;100067.84;;;8.74;45.45
71149;BME280;59072;42.144;25.200;2023-04-07T06:53:11;100075.22;;;8.85;44.15
71149;BME280;59072;42.144;25.200;2023-04-07T06:55:36;100084.25;;;8.64;44.86
71149;BME280;59072;42.144;25.200;2023-04-07T06:58:02;100082.78;;;8.82;44.11
71149;BME280;59072;42.144;25.200;2023-04-07T07:00:27;100081.38;;;8.53;43.54
71149;BME280;59072;42.144;25.200;2023-04-07T07:02:55;100082.19;;;8.73;45.83
71149;BME280;59072;42.144;25.200;2023-04-07T07:05:21;100081.53;;;8.98;44.38
71149;BME280;59072;42.144;25.200;2023-04-07T07:07:48;100085.75;;;9.19;42.63
71149;BME280;59072;42.144;25.200;2023-04-07T07:10:13;100080.91;;;9.02;41.77
71149;BME280;59072;42.144;25.200;2023-04-07T07:12:39;100081.66;;;9.30;41.95
71149;BME280;59072;42.144;25.200;2023-04-07T07:15:05;100087.41;;;9.72;43.66
71149;BME280;59072;42.144;25.200;2023-04-07T07:17:30;100098.50;;;9.69;40.84
71149;BME280;59072;42.144;25.200;2023-04-07T07:19:56;100097.63;;;9.81;41.96
71149;BME280;59072;42.144;25.200;2023-04-07T07:22:21;100091.38;;;9.62;41.48
71149;BME280;59072;42.144;25.200;2023-04-07T07:24:47;100107.38;;;9.94;40.43
71149;BME280;59072;42.144;25.200;2023-04-07T07:27:12;100105.41;;;9.83;39.00
71149;BME280;59072;42.144;25.200;2023-04-07T07:29:37;100088.91;;;9.61;39.92
71149;BME280;59072;42.144;25.200;2023-04-07T07:32:03;100096.22;;;9.72;37.98
71149;BME280;59072;42.144;25.200;2023-04-07T07:34:28;100099.34;;;9.56;39.97
71149;BME280;59072;42.144;25.200;2023-04-07T07:36:54;100102.34;;;10.11;41.25
71149;BME280;59072;42.144;25.200;2023-04-07T07:39:20;100083.06;;;10.16;40.97
71149;BME280;59072;42.144;25.200;2023-04-07T07:41:45;100096.88;;;10.63;38.22
71149;BME280;59072;42.144;25.200;2023-04-07T07:44:11;100104.59;;;10.71;37.85
71149;BME280;59072;42.144;25.200;2023-04-07T07:46:36;100102.00;;;11.08;38.64
71149;BME280;59072;42.144;25.200;2023-04-07T07:49:02;100108.19;;;10.83;38.40
71149;BME280;59072;42.144;25.200;2023-04-07T07:51:29;100104.59;;;10.71;37.81
71149;BME280;59072;42.144;25.200;2023-04-07T07:53:54;100114.00;;;10.74;36.24
71149;BME280;59072;42.144;25.200;2023-04-07T07:56:20;100102.53;;;11.17;37.12
71149;BME280;59072;42.144;25.200;2023-04-07T07:58:45;100112.88;;;11.06;38.52
71149;BME280;59072;42.144;25.200;2023-04-07T08:01:11;100103.91;;;11.38;36.38
71149;BME280;59072;42.144;25.200;2023-04-07T08:03:36;100110.16;;;11.50;35.43
71149;BME280;59072;42.144;25.200;2023-04-07T08:06:02;100107.03;;;11.53;34.79
71149;BME280;59072;42.144;25.200;2023-04-07T08:08:27;100093.31;;;11.31;37.34
71149;BME280;59072;42.144;25.200;2023-04-07T08:10:53;100107.84;;;11.54;36.64
71149;BME280;59072;42.144;25.200;2023-04-07T08:13:18;100102.41;;;11.60;38.16
71149;BME280;59072;42.144;25.200;2023-04-07T08:15:44;100107.75;;;11.97;37.06
71149;BME280;59072;42.144;25.200;2023-04-07T08:18:09;100108.50;;;12.16;34.99
71149;BME280;59072;42.144;25.200;2023-04-07T08:20:35;100103.34;;;12.45;36.85
71149;BME280;59072;42.144;25.200;2023-04-07T08:23:01;100104.38;;;12.32;34.08
71149;BME280;59072;42.144;25.200;2023-04-07T08:25:27;100099.94;;;12.38;33.55
71149;BME280;59072;42.144;25.200;2023-04-07T08:27:53;100104.16;;;12.93;34.22
71149;BME280;59072;42.144;25.200;2023-04-07T08:30:18;100091.03;;;12.68;33.48
71149;BME280;59072;42.144;25.200;2023-04-07T08:32:45;100085.44;;;12.93;33.72
71149;BME280;59072;42.144;25.200;2023-04-07T08:35:11;100108.09;;;13.49;32.79
71149;BME280;59072;42.144;25.200;2023-04-07T08:37:37;100105.47;;;13.66;31.71
71149;BME280;59072;42.144;25.200;2023-04-07T08:40:04;100100.34;;;13.93;31.12
71149;BME280;59072;42.144;25.200;2023-04-07T08:42:32;100103.09;;;13.81;32.36
71149;BME280;59072;42.144;25.200;2023-04-07T08:45:02;100108.38;;;14.22;30.47
71149;BME280;59072;42.144;25.200;2023-04-07T08:47:31;100092.41;;;13.70;30.83
71149;BME280;59072;42.144;25.200;2023-04-07T08:50:01;100092.81;;;14.07;32.14
71149;BME280;59072;42.144;25.200;2023-04-07T08:52:39;100095.50;;;14.07;33.14
71149;BME280;59072;42.144;25.200;2023-04-07T08:55:06;100101.69;;;13.79;30.67
71149;BME280;59072;42.144;25.200;2023-04-07T08:57:33;100101.28;;;13.58;32.79
71149;BME280;59072;42.144;25.200;2023-04-07T09:00:00;100105.91;;;13.75;31.99
71149;BME280;59072;42.144;25.200;2023-04-07T09:02:40;100087.81;;;13.82;33.25
71149;BME280;59072;42.144;25.200;2023-04-07T09:05:08;100094.69;;;13.90;30.21
71149;BME280;59072;42.144;25.200;2023-04-07T09:07:35;100098.59;;;13.99;30.40
71149;BME280;59072;42.144;25.200;2023-04-07T09:10:02;100098.56;;;14.44;28.91
71149;BME280;59072;42.144;25.200;2023-04-07T09:12:28;100099.34;;;14.28;29.04
71149;BME280;59072;42.144;25.200;2023-04-07T09:14:54;100091.00;;;14.24;32.27
71149;BME280;59072;42.144;25.200;2023-04-07T09:17:20;100096.28;;;14.36;28.78
71149;BME280;59072;42.144;25.200;2023-04-07T09:19:48;100097.91;;;14.37;31.37
71149;BME280;59072;42.144;25.200;2023-04-07T09:22:14;100091.63;;;13.69;30.51
71149;BME280;59072;42.144;25.200;2023-04-07T09:24:40;100083.28;;;13.42;30.71
71149;BME280;59072;42.144;25.200;2023-04-07T09:27:10;100088.22;;;13.33;32.68
71149;BME280;59072;42.144;25.200;2023-04-07T09:29:36;100092.03;;;13.25;31.83
71149;BME280;59072;42.144;25.200;2023-04-07T09:32:02;100084.25;;;13.24;32.25
71149;BME280;59072;42.144;25.200;2023-04-07T09:34:30;100091.31;;;13.42;33.04
71149;BME280;59072;42.144;25.200;2023-04-07T09:36:56;100086.84;;;14.17;31.71
71149;BME280;59072;42.144;25.200;2023-04-07T09:39:22;100085.56;;;14.53;30.60
71149;BME280;59072;42.144;25.200;2023-04-07T09:41:48;100065.06;;;14.30;30.14
71149;BME280;59072;42.144;25.200;2023-04-07T09:44:13;100081.56;;;14.73;30.53
71149;BME280;59072;42.144;25.200;2023-04-07T09:46:56;100091.59;;;14.60;29.30
71149;BME280;59072;42.144;25.200;2023-04-07T09:49:25;100090.69;;;14.89;28.78
71149;BME280;59072;42.144;25.200;2023-04-07T09:52:00;100089.78;;;15.22;30.55
71149;BME280;59072;42.144;25.200;2023-04-07T09:57:05;100091.84;;;15.59;29.18
71149;BME280;59072;42.144;25.200;2023-04-07T09:59:32;100078.25;;;14.82;31.03
71149;BME280;59072;42.144;25.200;2023-04-07T10:01:58;100077.75;;;14.85;28.46
71149;BME280;59072;42.144;25.200;2023-04-07T10:04:25;100078.41;;;14.76;30.67
71149;BME280;59072;42.144;25.200;2023-04-07T10:06:55;100078.19;;;14.77;29.91
71149;BME280;59072;42.144;25.200;2023-04-07T10:09:22;100066.13;;;15.41;31.22
71149;BME280;59072;42.144;25.200;2023-04-07T10:11:52;100085.63;;;15.31;28.83
71149;BME280;59072;42.144;25.200;2023-04-07T10:14:20;100075.75;;;15.37;27.82
71149;BME280;59072;42.144;25.200;2023-04-07T10:16:47;100075.28;;;15.01;29.67
71149;BME280;59072;42.144;25.200;2023-04-07T10:19:13;100072.97;;;15.32;30.67
71149;BME280;59072;42.144;25.200;2023-04-07T10:21:40;100076.03;;;15.62;29.04
71149;BME280;59072;42.144;25.200;2023-04-07T10:26:46;100055.78;;;16.36;30.11
71149;BME280;59072;42.144;25.200;2023-04-07T10:29:15;100074.81;;;16.24;27.81
71149;BME280;59072;42.144;25.200;2023-04-07T10:31:42;100079.31;;;15.20;29.48
71149;BME280;59072;42.144;25.200;2023-04-07T10:34:08;100070.31;;;14.93;31.52
71149;BME280;59072;42.144;25.200;2023-04-07T10:36:34;100072.53;;;15.18;29.89
71149;BME280;59072;42.144;25.200;2023-04-07T10:41:39;100063.38;;;15.85;31.14
71149;BME280;59072;42.144;25.200;2023-04-07T10:44:06;100061.03;;;16.21;28.44
71149;BME280;59072;42.144;25.200;2023-04-07T10:49:10;100074.16;;;15.85;28.38
71149;BME280;59072;42.144;25.200;2023-04-07T10:51:37;100072.44;;;16.33;29.22
71149;BME280;59072;42.144;25.200;2023-04-07T10:54:17;100057.84;;;16.99;27.82
71149;BME280;59072;42.144;25.200;2023-04-07T10:57:14;100079.16;;;17.79;28.03
71149;BME280;59072;42.144;25.200;2023-04-07T10:59:42;100079.53;;;18.13;27.20
71149;BME280;59072;42.144;25.200;2023-04-07T11:04:52;100078.16;;;18.26;26.98
71149;BME280;59072;42.144;25.200;2023-04-07T11:07:17;100078.06;;;17.75;27.34
71149;BME280;59072;42.144;25.200;2023-04-07T11:09:45;100075.34;;;17.59;26.08
71149;BME280;59072;42.144;25.200;2023-04-07T11:12:28;100070.06;;;16.74;28.32
71149;BME280;59072;42.144;25.200;2023-04-07T11:14:55;100064.00;;;16.57;27.89
71149;BME280;59072;42.144;25.200;2023-04-07T11:17:20;100057.28;;;16.22;27.65
71149;BME280;59072;42.144;25.200;2023-04-07T11:19:53;100069.19;;;15.99;29.77
71149;BME280;59072;42.144;25.200;2023-04-07T11:22:18;100068.34;;;16.63;29.10
71149;BME280;59072;42.144;25.200;2023-04-07T11:24:47;100065.31;;;16.86;27.51
71149;BME280;59072;42.144;25.200;2023-04-07T11:27:13;100060.28;;;17.05;27.51
71149;BME280;59072;42.144;25.200;2023-04-07T11:29:38;100061.47;;;17.30;28.61
71149;BME280;59072;42.144;25.200;2023-04-07T11:32:04;100063.25;;;17.82;29.24
71149;BME280;59072;42.144;25.200;2023-04-07T11:34:34;100065.22;;;18.38;28.14
71149;BME280;59072;42.144;25.200;2023-04-07T11:39:55;100067.63;;;18.09;26.27
71149;BME280;59072;42.144;25.200;2023-04-07T11:42:34;100050.91;;;18.53;28.01
71149;BME280;59072;42.144;25.200;2023-04-07T11:45:00;100057.09;;;18.07;27.90
71149;BME280;59072;42.144;25.200;2023-04-07T11:47:39;100052.25;;;17.99;29.92
71149;BME280;59072;42.144;25.200;2023-04-07T11:50:05;100054.16;;;18.30;27.60
71149;BME280;59072;42.144;25.200;2023-04-07T11:55:16;100031.41;;;16.91;28.20
71149;BME280;59072;42.144;25.200;2023-04-07T11:57:41;100030.47;;;17.27;27.47
71149;BME280;59072;42.144;25.200;2023-04-07T12:00:09;100038.13;;;17.61;28.34
71149;BME280;59072;42.144;25.200;2023-04-07T12:02:35;100042.97;;;17.54;27.84
71149;BME280;59072;42.144;25.200;2023-04-07T12:05:01;100044.09;;;17.79;28.18
71149;BME280;59072;42.144;25.200;2023-04-07T12:07:27;100033.28;;;17.63;28.22
71149;BME280;59072;42.144;25.200;2023-04-07T12:09:53;100029.66;;;16.79;28.39
71149;BME280;59072;42.144;25.200;2023-04-07T12:12:28;100033.91;;;16.27;29.10
71149;BME280;59072;42.144;25.200;2023-04-07T12:14:55;100039.84;;;17.98;28.99
71149;BME280;59072;42.144;25.200;2023-04-07T12:17:24;100024.72;;;18.43;28.17
71149;BME280;59072;42.144;25.200;2023-04-07T12:19:51;100020.38;;;18.53;29.60
71149;BME280;59072;42.144;25.200;2023-04-07T12:22:16;100029.25;;;18.68;28.56
71149;BME280;59072;42.144;25.200;2023-04-07T12:24:42;100029.00;;;18.60;28.14
71149;BME280;59072;42.144;25.200;2023-04-07T12:27:07;100009.06;;;18.35;28.55
71149;BME280;59072;42.144;25.200;2023-04-07T12:29:34;100022.50;;;18.76;28.46
71149;BME280;59072;42.144;25.200;2023-04-07T12:32:00;100025.50;;;18.64;28.12
71149;BME280;59072;42.144;25.200;2023-04-07T12:34:26;100019.59;;;18.42;29.50
71149;BME280;59072;42.144;25.200;2023-04-07T12:36:52;100023.03;;;17.60;29.80
71149;BME280;59072;42.144;25.200;2023-04-07T12:39:17;100019.50;;;16.06;31.43
71149;BME280;59072;42.144;25.200;2023-04-07T12:41:43;100013.88;;;16.51;32.31
71149;BME280;59072;42.144;25.200;2023-04-07T12:44:10;100014.38;;;16.42;31.20
71149;BME280;59072;42.144;25.200;2023-04-07T12:46:35;100009.06;;;16.15;33.19
71149;BME280;59072;42.144;25.200;2023-04-07T12:49:01;100006.13;;;15.62;33.97
71149;BME280;59072;42.144;25.200;2023-04-07T12:51:27;100010.25;;;15.97;32.16
71149;BME280;59072;42.144;25.200;2023-04-07T12:53:53;100005.59;;;16.57;32.17
71149;BME280;59072;42.144;25.200;2023-04-07T12:56:19;100014.69;;;16.89;32.82
71149;BME280;59072;42.144;25.200;2023-04-07T12:58:46;100020.13;;;17.93;31.01
71149;BME280;59072;42.144;25.200;2023-04-07T13:01:12;100006.94;;;17.96;29.46
71149;BME280;59072;42.144;25.200;2023-04-07T13:03:38;100007.66;;;17.71;31.10
71149;BME280;59072;42.144;25.200;2023-04-07T13:06:04;100013.38;;;17.95;29.73
71149;BME280;59072;42.144;25.200;2023-04-07T13:08:30;100000.97;;;18.10;30.92
71149;BME280;59072;42.144;25.200;2023-04-07T13:10:56;99999.56;;;17.56;30.14
71149;BME280;59072;42.144;25.200;2023-04-07T13:13:22;100004.13;;;17.45;30.28
71149;BME280;59072;42.144;25.200;2023-04-07T13:15:47;99996.94;;;17.86;30.14